Time,TemperatureF,DewpointF,PressureIn,WindDirection,WindDirectionDegrees,WindSpeedMPH,WindSpeedGustMPH,Humidity,HourlyPrecipIn,Conditions,Clouds,dailyrainin,SoftwareType,DateUTC
2013-03-22 00:10:00,47.8,43.0,29.93,NW,326,0.0,1.0,84,0.00,,,0.00,weatherlink.com 1.10,2013-03-22 04:10:00,
2013-03-22 00:25:00,46.7,42.0,29.93,NW,326,0.0,0.0,84,0.00,,,0.00,weatherlink.com 1.10,2013-03-22 04:25:00,
2013-03-22 00:40:00,46.2,43.0,29.93,NW,326,0.0,0.0,87,0.00,,,0.00,weatherlink.com 1.10,2013-03-22 04:40:00,
2013-03-22 00:55:00,45.3,42.0,29.92,NW,326,0.0,0.0,87,0.00,,,0.00,weatherlink.com 1.10,2013-03-22 04:55:00,
2013-03-22 01:10:00,44.6,41.0,29.92,NW,326,0.0,0.0,88,0.00,,,0.00,weatherlink.com 1.10,2013-03-22 05:10:00,
2013-03-22 01:25:00,44.3,41.0,29.92,NW,326,0.0,0.0,89,0.00,,,0.00,weatherlink.com 1.10,2013-03-22 05:25:00,
2013-03-22 01:40:00,43.6,41.0,29.92,NW,326,0.0,0.0,90,0.00,,,0.00,weatherlink.com 1.10,2013-03-22 05:40:00,
2013-03-22 01:55:00,43.7,41.0,29.92,NW,326,0.0,0.0,91,0.00,,,0.00,weatherlink.com 1.10,2013-03-22 05:55:00,
2013-03-22 02:10:00,43.5,41.0,29.92,NW,326,0.0,0.0,92,0.00,,,0.00,weatherlink.com 1.10,2013-03-22 06:10:00,
2013-03-22 02:26:00,43.2,41.0,29.92,NW,326,0.0,0.0,92,0.00,,,0.00,weatherlink.com 1.10,2013-03-22 06:26:00,
2013-03-22 02:41:00,42.8,41.0,29.92,NW,326,0.0,0.0,92,0.00,,,0.00,weatherlink.com 1.10,2013-03-22 06:41:00,
2013-03-22 02:56:00,42.5,41.0,29.91,NW,326,0.0,0.0,93,0.00,,,0.00,weatherlink.com 1.10,2013-03-22 06:56:00,
2013-03-22 03:11:00,41.8,40.0,29.91,NW,326,0.0,0.0,92,0.00,,,0.00,weatherlink.com 1.10,2013-03-22 07:11:00,
2013-03-22 03:26:00,41.6,40.0,29.90,NW,326,0.0,0.0,93,0.00,,,0.00,weatherlink.com 1.10,2013-03-22 07:26:00,
2013-03-22 04:56:00,40.7,39.0,29.91,NW,326,0.0,0.0,94,0.00,,,0.00,weatherlink.com 1.10,2013-03-22 08:56:00,
2013-03-22 05:26:00,40.4,39.0,29.91,NW,326,0.0,0.0,94,0.00,,,0.00,weatherlink.com 1.10,2013-03-22 09:26:00,
2013-03-22 05:41:00,40.5,39.0,29.91,NW,326,0.0,0.0,95,0.00,,,0.00,weatherlink.com 1.10,2013-03-22 09:41:00,
2013-03-22 05:56:00,40.6,39.0,29.92,NW,326,0.0,0.0,95,0.00,,,0.00,weatherlink.com 1.10,2013-03-22 09:56:00,
2013-03-22 06:11:00,41.0,40.0,29.92,NW,326,0.0,0.0,95,0.00,,,0.00,weatherlink.com 1.10,2013-03-22 10:11:00,
2013-03-22 06:26:00,41.1,40.0,29.93,NW,326,0.0,0.0,95,0.00,,,0.00,weatherlink.com 1.10,2013-03-22 10:26:00,
2013-03-22 06:41:00,41.1,40.0,29.93,NW,326,0.0,0.0,95,0.00,,,0.00,weatherlink.com 1.10,2013-03-22 10:41:00,
2013-03-22 06:56:00,40.6,39.0,29.95,NW,326,0.0,0.0,95,0.00,,,0.00,weatherlink.com 1.10,2013-03-22 10:56:00,
2013-03-22 07:11:00,40.9,40.0,29.95,NW,326,0.0,0.0,96,0.00,,,0.00,weatherlink.com 1.10,2013-03-22 11:11:00,
2013-03-22 07:26:00,41.0,40.0,29.96,NW,326,0.0,0.0,95,0.00,,,0.00,weatherlink.com 1.10,2013-03-22 11:26:00,
2013-03-22 07:41:00,41.1,40.0,29.97,NW,326,0.0,0.0,96,0.00,,,0.00,weatherlink.com 1.10,2013-03-22 11:41:00,
2013-03-22 07:56:00,42.0,41.0,29.97,NW,326,0.0,0.0,96,0.00,,,0.00,weatherlink.com 1.10,2013-03-22 11:56:00,
2013-03-22 08:11:00,45.1,44.0,29.98,NW,325,0.0,0.0,97,0.00,,,0.00,weatherlink.com 1.10,2013-03-22 12:11:00,
2013-03-22 08:26:00,47.9,47.0,29.98,NW,325,0.0,0.0,97,0.00,,,0.00,weatherlink.com 1.10,2013-03-22 12:26:00,
2013-03-22 08:41:00,50.4,49.0,29.98,NNW,348,0.0,0.0,95,0.00,,,0.00,weatherlink.com 1.10,2013-03-22 12:41:00,
2013-03-22 08:56:00,52.7,51.0,29.99,NNW,347,0.0,0.0,93,0.00,,,0.00,weatherlink.com 1.10,2013-03-22 12:56:00,
2013-03-22 09:11:00,54.9,53.0,29.99,NNW,347,0.0,0.0,92,0.00,,,0.00,weatherlink.com 1.10,2013-03-22 13:11:00,
2013-03-22 09:26:00,57.0,54.0,29.99,NNW,340,0.0,2.0,89,0.00,,,0.00,weatherlink.com 1.10,2013-03-22 13:26:00,
2013-03-22 09:42:00,59.2,55.0,30.00,North,1,0.0,1.0,86,0.00,,,0.00,weatherlink.com 1.10,2013-03-22 13:42:00,
2013-03-22 09:57:00,62.3,56.0,30.00,North,349,0.0,4.0,79,0.00,,,0.00,weatherlink.com 1.10,2013-03-22 13:57:00,
2013-03-22 10:12:00,65.8,55.0,30.00,SE,146,0.0,5.0,69,0.00,,,0.00,weatherlink.com 1.10,2013-03-22 14:12:00,
2013-03-22 10:27:00,67.2,50.0,30.00,NNE,32,1.0,7.0,54,0.00,,,0.00,weatherlink.com 1.10,2013-03-22 14:27:00,
2013-03-22 10:42:00,69.7,51.0,30.00,North,353,3.0,4.0,52,0.00,,,0.00,weatherlink.com 1.10,2013-03-22 14:42:00,
2013-03-22 10:57:00,70.3,52.0,30.00,NW,311,2.0,2.0,53,0.00,,,0.00,weatherlink.com 1.10,2013-03-22 14:57:00,
2013-03-22 11:12:00,71.6,52.0,30.00,ENE,78,1.0,5.0,50,0.00,,,0.00,weatherlink.com 1.10,2013-03-22 15:12:00,
2013-03-22 11:27:00,72.4,51.0,30.00,SE,142,1.0,5.0,47,0.00,,,0.00,weatherlink.com 1.10,2013-03-22 15:27:00,
2013-03-22 11:42:00,73.0,53.0,30.00,WNW,288,0.0,7.0,50,0.00,,,0.00,weatherlink.com 1.10,2013-03-22 15:42:00,
2013-03-22 11:57:00,73.4,50.0,29.99,WSW,256,0.0,7.0,44,0.00,,,0.00,weatherlink.com 1.10,2013-03-22 15:57:00,
2013-03-22 12:12:00,74.2,51.0,29.99,North,358,0.0,6.0,44,0.00,,,0.00,weatherlink.com 1.10,2013-03-22 16:12:00,
2013-03-22 12:27:00,73.6,52.0,29.99,WNW,290,1.0,5.0,47,0.00,,,0.00,weatherlink.com 1.10,2013-03-22 16:27:00,
2013-03-22 12:42:00,74.5,52.0,29.97,SSE,153,0.0,5.0,46,0.00,,,0.00,weatherlink.com 1.10,2013-03-22 16:42:00,
2013-03-22 12:57:00,75.3,54.0,29.97,ESE,122,2.0,6.0,48,0.00,,,0.00,weatherlink.com 1.10,2013-03-22 16:57:00,
2013-03-22 13:12:00,74.2,55.0,29.97,East,86,1.0,4.0,52,0.00,,,0.00,weatherlink.com 1.10,2013-03-22 17:12:00,
2013-03-22 13:27:00,75.4,54.0,29.97,ESE,122,5.0,8.0,48,0.00,,,0.00,weatherlink.com 1.10,2013-03-22 17:27:00,
2013-03-22 13:42:00,76.3,55.0,29.96,NE,46,0.0,4.0,48,0.00,,,0.00,weatherlink.com 1.10,2013-03-22 17:42:00,
2013-03-22 13:57:00,77.1,57.0,29.95,ENE,65,1.0,4.0,50,0.00,,,0.00,weatherlink.com 1.10,2013-03-22 17:57:00,
2013-03-22 14:12:00,77.6,56.0,29.95,NNW,347,1.0,7.0,47,0.00,,,0.00,weatherlink.com 1.10,2013-03-22 18:12:00,
2013-03-22 14:27:00,78.0,56.0,29.94,East,81,4.0,7.0,47,0.00,,,0.00,weatherlink.com 1.10,2013-03-22 18:27:00,
2013-03-22 14:42:00,77.9,56.0,29.93,SE,145,1.0,7.0,47,0.00,,,0.00,weatherlink.com 1.10,2013-03-22 18:42:00,
2013-03-22 14:57:00,76.2,56.0,29.93,SE,132,2.0,7.0,49,0.00,,,0.00,weatherlink.com 1.10,2013-03-22 18:57:00,
2013-03-22 15:12:00,76.0,55.0,29.92,SE,131,5.0,7.0,49,0.00,,,0.00,weatherlink.com 1.10,2013-03-22 19:12:00,
2013-03-22 15:27:00,77.2,56.0,29.91,South,184,4.0,10.0,48,0.00,,,0.00,weatherlink.com 1.10,2013-03-22 19:27:00,
2013-03-22 15:43:00,75.1,56.0,29.91,SE,136,2.0,9.0,51,0.00,,,0.00,weatherlink.com 1.10,2013-03-22 19:43:00,
2013-03-22 15:58:00,73.1,56.0,29.91,South,189,1.0,8.0,55,0.00,,,0.00,weatherlink.com 1.10,2013-03-22 19:58:00,
2013-03-22 16:13:00,72.1,56.0,29.91,SE,130,2.0,9.0,57,0.00,,,0.00,weatherlink.com 1.10,2013-03-22 20:13:00,
2013-03-22 16:28:00,72.1,56.0,29.89,SE,129,5.0,9.0,58,0.00,,,0.00,weatherlink.com 1.10,2013-03-22 20:28:00,
2013-03-22 16:43:00,72.1,56.0,29.90,ESE,116,3.0,5.0,58,0.00,,,0.00,weatherlink.com 1.10,2013-03-22 20:43:00,
2013-03-22 16:58:00,71.8,58.0,29.90,SSE,167,5.0,9.0,62,0.00,,,0.00,weatherlink.com 1.10,2013-03-22 20:58:00,
2013-03-22 17:28:00,69.9,60.0,29.90,SW,236,0.0,6.0,71,0.00,,,0.00,weatherlink.com 1.10,2013-03-22 21:28:00,
2013-03-22 17:43:00,69.0,62.0,29.91,SE,127,2.0,4.0,77,0.06,,,0.06,weatherlink.com 1.10,2013-03-22 21:43:00,
2013-03-22 17:58:00,66.7,62.0,29.92,SSE,156,0.0,5.0,86,0.09,,,0.09,weatherlink.com 1.10,2013-03-22 21:58:00,
2013-03-22 18:13:00,65.4,63.0,29.92,SE,138,1.0,5.0,90,0.31,,,0.31,weatherlink.com 1.10,2013-03-22 22:13:00,
2013-03-22 18:28:00,64.5,62.0,29.92,ESE,122,1.0,5.0,92,0.34,,,0.34,weatherlink.com 1.10,2013-03-22 22:28:00,
2013-03-22 18:43:00,64.1,62.0,29.92,SE,145,1.0,4.0,93,0.29,,,0.35,weatherlink.com 1.10,2013-03-22 22:43:00,
2013-03-22 18:58:00,63.8,62.0,29.93,SE,127,0.0,1.0,93,0.25,,,0.35,weatherlink.com 1.10,2013-03-22 22:58:00,
2013-03-22 19:13:00,63.6,62.0,29.95,SE,130,0.0,2.0,94,0.09,,,0.40,weatherlink.com 1.10,2013-03-22 23:13:00,
2013-03-22 19:28:00,63.4,62.0,29.94,SE,134,1.0,1.0,94,0.13,,,0.47,weatherlink.com 1.10,2013-03-22 23:28:00,
2013-03-22 19:43:00,63.2,62.0,29.95,West,263,0.0,2.0,94,0.13,,,0.48,weatherlink.com 1.10,2013-03-22 23:43:00,
2013-03-22 19:58:00,63.0,62.0,29.94,SE,134,2.0,5.0,95,0.15,,,0.50,weatherlink.com 1.10,2013-03-22 23:58:00,
2013-03-22 20:13:00,62.8,61.0,29.95,NNE,33,0.0,3.0,95,0.10,,,0.50,weatherlink.com 1.10,2013-03-23 00:13:00,
2013-03-22 20:28:00,62.8,61.0,29.95,SSE,160,0.0,1.0,95,0.03,,,0.50,weatherlink.com 1.10,2013-03-23 00:28:00,
2013-03-22 20:43:00,62.9,62.0,29.96,SSE,153,0.0,1.0,95,0.02,,,0.50,weatherlink.com 1.10,2013-03-23 00:43:00,
2013-03-22 20:58:00,63.2,62.0,29.95,SE,130,0.0,1.0,96,0.00,,,0.50,weatherlink.com 1.10,2013-03-23 00:58:00,
2013-03-22 21:13:00,63.3,62.0,29.96,ESE,117,0.0,1.0,96,0.00,,,0.50,weatherlink.com 1.10,2013-03-23 01:13:00,
2013-03-22 21:28:00,63.5,62.0,29.95,WSW,242,0.0,1.0,96,0.00,,,0.50,weatherlink.com 1.10,2013-03-23 01:28:00,
2013-03-22 21:43:00,63.5,62.0,29.96,ESE,103,0.0,2.0,96,0.00,,,0.50,weatherlink.com 1.10,2013-03-23 01:43:00,
2013-03-22 21:58:00,63.6,63.0,29.96,SSE,152,0.0,1.0,96,0.00,,,0.50,weatherlink.com 1.10,2013-03-23 01:58:00,
2013-03-22 22:13:00,63.8,63.0,29.97,SE,134,0.0,1.0,96,0.00,,,0.50,weatherlink.com 1.10,2013-03-23 02:13:00,
2013-03-22 22:28:00,63.8,63.0,29.97,SSE,149,0.0,1.0,96,0.00,,,0.50,weatherlink.com 1.10,2013-03-23 02:28:00,
2013-03-22 22:43:00,63.9,63.0,29.98,SE,145,0.0,1.0,96,0.00,,,0.50,weatherlink.com 1.10,2013-03-23 02:43:00,
2013-03-22 22:58:00,63.9,63.0,29.98,East,90,0.0,2.0,96,0.00,,,0.50,weatherlink.com 1.10,2013-03-23 02:58:00,
2013-03-22 23:13:00,64.0,63.0,29.97,ENE,75,0.0,2.0,96,0.01,,,0.51,weatherlink.com 1.10,2013-03-23 03:13:00,
2013-03-22 23:28:00,64.2,63.0,29.99,ESE,111,1.0,3.0,96,0.01,,,0.51,weatherlink.com 1.10,2013-03-23 03:28:00,
2013-03-22 23:43:00,64.3,63.0,29.97,SSE,152,0.0,2.0,96,0.01,,,0.51,weatherlink.com 1.10,2013-03-23 03:43:00,
2013-03-22 23:58:00,64.3,63.0,29.97,SSE,156,0.0,2.0,96,0.01,,,0.00,weatherlink.com 1.10,2013-03-23 03:58:00,